Time;durP1;ratioP1;P1;durP2;ratioP2;P2;SDS_P1;SDS_P2;PMS_P1;PMS_P2;Temp;Humidity;BMP_temperature;BMP_pressure;BME280_temperature;BME280_humidity;BME280_pressure;Samples;Min_cycle;Max_cycle;Signal;HPM_P1;HPM_P2
2021/07/21 00:00:28;;;;;;;8.48;5.38;;;19.00;78.80;;;;;;5052235;28;20505;-88
2021/07/21 00:02:55;;;;;;;8.57;5.85;;;18.90;78.60;;;;;;5053917;28;20139;-88
2021/07/21 00:05:23;;;;;;;8.55;6.10;;;18.90;79.40;;;;;;5053768;28;20072;-88
2021/07/21 00:07:49;;;;;;;7.90;5.63;;;18.80;79.20;;;;;;5064645;28;20052;-89
2021/07/21 00:10:19;;;;;;;8.70;5.68;;;18.80;80.20;;;;;;5076936;28;20122;-89
2021/07/21 00:15:32;;;;;;;8.38;5.95;;;18.70;79.70;;;;;;5076343;28;20056;-89
2021/07/21 00:18:03;;;;;;;8.70;5.68;;;18.60;79.40;;;;;;5076844;28;20071;-89
2021/07/21 00:20:31;;;;;;;7.80;5.60;;;18.50;79.70;;;;;;5076257;28;20065;-89
2021/07/21 00:22:57;;;;;;;7.90;5.88;;;18.50;80.00;;;;;;5076909;28;20102;-89
2021/07/21 00:25:23;;;;;;;8.95;6.32;;;18.50;80.20;;;;;;5056873;28;20045;-89
2021/07/21 00:27:49;;;;;;;7.97;5.70;;;18.40;80.20;;;;;;5056108;28;20055;-89
2021/07/21 00:30:17;;;;;;;9.05;5.80;;;18.40;80.10;;;;;;5056828;28;20163;-88
2021/07/21 00:32:43;;;;;;;9.25;6.18;;;18.40;80.20;;;;;;5056924;28;20102;-89
2021/07/21 00:35:11;;;;;;;9.68;5.95;;;18.40;80.40;;;;;;5072814;28;20053;-88
2021/07/21 00:37:38;;;;;;;8.63;5.72;;;18.30;80.40;;;;;;5076786;28;20044;-88
2021/07/21 00:40:06;;;;;;;8.50;5.85;;;18.30;80.50;;;;;;5074940;28;20052;-86
2021/07/21 00:42:32;;;;;;;9.05;5.93;;;18.20;80.60;;;;;;5075706;28;20041;-89
2021/07/21 00:44:57;;;;;;;9.15;6.05;;;18.20;80.60;;;;;;5076113;28;20048;-89
2021/07/21 00:47:23;;;;;;;8.02;5.68;;;18.20;80.60;;;;;;5076542;28;20435;-86
2021/07/21 00:49:49;;;;;;;8.93;5.47;;;18.10;80.50;;;;;;5059017;28;20073;-87
2021/07/21 00:52:16;;;;;;;10.35;6.43;;;18.10;80.60;;;;;;5055352;28;20132;-87
2021/07/21 00:54:43;;;;;;;8.07;5.63;;;18.10;80.80;;;;;;5070989;28;20040;-87
2021/07/21 00:57:10;;;;;;;8.10;6.05;;;18.00;80.80;;;;;;5074778;28;20044;-86
2021/07/21 00:59:36;;;;;;;8.82;5.70;;;18.00;81.00;;;;;;5075935;28;20511;-86
2021/07/21 01:02:03;;;;;;;9.63;6.03;;;18.00;81.10;;;;;;5075875;28;20036;-87
2021/07/21 01:04:32;;;;;;;8.85;5.97;;;17.90;81.00;;;;;;5075149;28;20078;-86
2021/07/21 01:07:00;;;;;;;8.95;5.75;;;17.80;81.10;;;;;;5076076;28;20473;-87
2021/07/21 01:09:27;;;;;;;9.88;6.28;;;17.80;81.20;;;;;;5076217;28;20055;-88
2021/07/21 01:12:03;;;;;;;9.00;5.82;;;17.80;81.20;;;;;;5075601;28;20044;-86
2021/07/21 01:14:42;;;;;;;9.07;5.82;;;17.70;81.00;;;;;;5076048;28;20455;-87
2021/07/21 01:17:14;;;;;;;8.75;6.20;;;17.70;81.10;;;;;;5075212;28;20052;-87
2021/07/21 01:20:02;;;;;;;9.50;5.70;;;17.70;81.50;;;;;;5074316;28;20044;-88
2021/07/21 01:22:30;;;;;;;10.18;6.78;;;17.60;80.20;;;;;;5076078;28;20094;-88
2021/07/21 01:25:13;;;;;;;9.63;5.60;;;17.60;81.60;;;;;;5074229;28;20139;-88
2021/07/21 01:27:46;;;;;;;7.87;5.63;;;17.60;81.20;;;;;;5076048;28;20079;-87
2021/07/21 01:30:16;;;;;;;10.15;5.70;;;17.50;81.60;;;;;;5075299;28;20432;-87
2021/07/21 01:32:45;;;;;;;7.97;5.80;;;17.50;81.70;;;;;;5075043;28;20408;-87
2021/07/21 01:35:16;;;;;;;8.85;5.95;;;17.50;82.00;;;;;;5075133;28;20088;-87
2021/07/21 01:37:52;;;;;;;8.40;5.65;;;17.40;82.00;;;;;;5075487;28;20123;-87
2021/07/21 01:40:23;;;;;;;7.43;5.28;;;17.40;82.00;;;;;;5075605;28;20075;-88
2021/07/21 01:42:51;;;;;;;7.43;5.47;;;17.40;82.00;;;;;;5075788;28;20078;-87
2021/07/21 01:45:18;;;;;;;8.73;5.05;;;17.30;82.20;;;;;;5069493;28;20404;-87
2021/07/21 01:47:44;;;;;;;8.00;5.05;;;17.30;82.30;;;;;;5055299;28;20045;-87
2021/07/21 01:50:12;;;;;;;8.23;5.55;;;17.30;82.30;;;;;;5054794;28;20053;-87
2021/07/21 01:52:40;;;;;;;7.82;4.93;;;17.30;82.40;;;;;;5054938;28;20123;-87
2021/07/21 01:55:07;;;;;;;7.15;4.88;;;17.20;82.50;;;;;;5055076;28;20049;-87
2021/07/21 01:57:34;;;;;;;8.32;5.20;;;17.20;82.30;;;;;;5056244;28;20049;-88
2021/07/21 02:00:05;;;;;;;7.53;5.45;;;17.20;82.40;;;;;;5054365;28;20053;-87
2021/07/21 02:02:31;;;;;;;7.65;5.50;;;17.10;82.50;;;;;;5054958;28;20449;-87
2021/07/21 02:05:00;;;;;;;7.60;4.90;;;17.20;82.80;;;;;;5055249;28;20056;-88
2021/07/21 02:07:26;;;;;;;8.75;5.18;;;17.10;82.70;;;;;;5054496;28;20053;-87
2021/07/21 02:09:53;;;;;;;6.90;4.97;;;17.10;82.80;;;;;;5075099;28;20094;-87
2021/07/21 02:12:19;;;;;;;7.47;5.07;;;17.00;82.80;;;;;;5074818;28;20045;-87
2021/07/21 02:14:46;;;;;;;6.97;4.95;;;17.00;82.90;;;;;;5073748;28;20078;-87
2021/07/21 02:17:14;;;;;;;7.95;5.10;;;17.00;83.00;;;;;;5074271;28;20055;-87
2021/07/21 02:19:42;;;;;;;8.05;5.18;;;16.90;82.90;;;;;;5074710;28;20056;-88
2021/07/21 02:22:08;;;;;;;8.05;5.40;;;16.90;83.10;;;;;;5073680;28;20122;-86
2021/07/21 02:24:34;;;;;;;7.88;5.15;;;16.90;83.10;;;;;;5075124;28;20480;-87
2021/07/21 02:27:00;;;;;;;8.20;5.60;;;16.90;83.00;;;;;;5074139;28;20044;-87
2021/07/21 02:29:26;;;;;;;8.18;5.10;;;16.80;83.00;;;;;;5073442;28;20063;-87
2021/07/21 02:31:59;;;;;;;10.43;5.70;;;16.80;82.90;;;;;;5074628;28;20438;-87
2021/07/21 02:34:24;;;;;;;8.98;5.70;;;16.80;83.10;;;;;;5073940;28;20052;-87
2021/07/21 02:36:50;;;;;;;8.90;5.57;;;16.80;83.00;;;;;;5074698;28;20404;-88
2021/07/21 02:39:16;;;;;;;9.02;5.60;;;16.80;82.80;;;;;;5073564;28;20055;-88
2021/07/21 02:41:43;;;;;;;7.97;5.32;;;16.70;82.70;;;;;;5073331;28;20049;-89
2021/07/21 02:44:10;;;;;;;8.48;5.90;;;16.70;82.80;;;;;;5074059;28;20044;-87
2021/07/21 02:46:36;;;;;;;8.95;6.35;;;16.70;83.10;;;;;;5074709;28;20055;-88
2021/07/21 02:49:02;;;;;;;10.07;6.00;;;16.70;83.30;;;;;;5073593;28;20055;-88
2021/07/21 02:51:35;;;;;;;10.10;6.20;;;16.70;83.50;;;;;;5074242;28;20051;-87
2021/07/21 02:54:31;;;;;;;9.15;6.00;;;16.70;83.50;;;;;;5073711;28;20049;-88
2021/07/21 02:57:02;;;;;;;8.80;5.93;;;16.60;82.70;;;;;;5064789;28;20484;-88
2021/07/21 02:59:40;;;;;;;8.38;6.15;;;16.60;83.80;;;;;;5053837;28;20053;-87
2021/07/21 03:02:07;;;;;;;9.85;6.43;;;16.60;83.20;;;;;;5063877;28;20507;-87
2021/07/21 03:04:34;;;;;;;9.63;6.03;;;16.60;83.40;;;;;;5073266;28;20048;-87
2021/07/21 03:07:01;;;;;;;9.63;6.80;;;16.60;83.50;;;;;;5073696;28;20048;-87
2021/07/21 03:09:27;;;;;;;10.55;6.57;;;16.60;83.60;;;;;;5073097;28;20083;-87
2021/07/21 03:11:58;;;;;;;9.18;6.05;;;16.60;83.60;;;;;;5073817;28;20400;-87
2021/07/21 03:14:24;;;;;;;9.98;6.30;;;16.60;83.70;;;;;;5074325;28;20040;-87
2021/07/21 03:16:52;;;;;;;8.77;6.20;;;16.60;83.70;;;;;;5073033;28;20106;-87
2021/07/21 03:19:23;;;;;;;9.35;5.93;;;16.60;83.70;;;;;;5073422;28;20131;-87
2021/07/21 03:21:51;;;;;;;9.15;6.13;;;16.60;83.60;;;;;;5073351;28;20427;-87
2021/07/21 03:24:19;;;;;;;10.82;6.57;;;16.60;83.40;;;;;;5072635;28;20080;-86
2021/07/21 03:26:47;;;;;;;10.23;6.18;;;16.50;83.40;;;;;;5072855;28;20048;-87
2021/07/21 03:29:14;;;;;;;8.77;5.93;;;16.50;83.40;;;;;;5073413;28;20052;-87
2021/07/21 03:31:41;;;;;;;9.18;6.30;;;16.50;83.20;;;;;;5072343;28;20098;-87
2021/07/21 03:34:10;;;;;;;10.63;6.85;;;16.50;83.40;;;;;;5073175;28;20102;-87
2021/07/21 03:36:39;;;;;;;9.27;6.53;;;16.50;83.30;;;;;;5073185;28;20045;-87
2021/07/21 03:39:07;;;;;;;9.80;6.25;;;16.50;83.30;;;;;;5072062;28;20044;-87
2021/07/21 03:41:34;;;;;;;8.95;6.40;;;16.50;83.30;;;;;;5072542;28;20075;-87
2021/07/21 03:44:02;;;;;;;9.30;6.63;;;16.50;83.20;;;;;;5072923;28;20491;-87
2021/07/21 03:46:36;;;;;;;8.88;6.28;;;16.50;83.30;;;;;;5066016;28;20049;-87
2021/07/21 03:49:02;;;;;;;10.98;6.55;;;16.50;83.40;;;;;;5053202;28;20152;-87
2021/07/21 03:51:36;;;;;;;10.13;6.45;;;16.50;83.30;;;;;;5052850;28;20076;-87
2021/07/21 03:54:05;;;;;;;9.48;6.82;;;16.50;83.10;;;;;;5052828;28;20481;-87
2021/07/21 03:56:31;;;;;;;9.55;6.50;;;16.50;82.70;;;;;;5059567;28;20044;-87
2021/07/21 03:59:00;;;;;;;8.88;6.63;;;16.50;83.10;;;;;;5072330;28;20507;-88
2021/07/21 04:01:27;;;;;;;10.85;6.68;;;16.50;83.00;;;;;;5072419;28;20055;-86
2021/07/21 04:03:54;;;;;;;9.52;6.82;;;16.50;83.20;;;;;;5053239;28;20048;-87
2021/07/21 04:06:22;;;;;;;10.57;7.03;;;16.50;83.40;;;;;;5052296;28;20179;-87
2021/07/21 04:08:50;;;;;;;10.82;6.78;;;16.60;83.50;;;;;;5053345;28;20124;-87
2021/07/21 04:11:17;;;;;;;10.07;6.55;;;16.50;83.20;;;;;;5052694;28;20045;-87
2021/07/21 04:13:43;;;;;;;9.75;7.18;;;16.50;83.40;;;;;;5052163;28;20049;-87
2021/07/21 04:16:12;;;;;;;9.43;6.53;;;16.50;83.20;;;;;;5055773;28;20067;-87
2021/07/21 04:18:39;;;;;;;9.18;6.47;;;16.50;83.30;;;;;;5072947;28;20057;-87
2021/07/21 04:21:08;;;;;;;9.60;6.55;;;16.50;83.20;;;;;;5071816;28;20049;-87
2021/07/21 04:23:38;;;;;;;9.45;6.72;;;16.50;83.40;;;;;;5072871;28;20056;-86
2021/07/21 04:26:04;;;;;;;9.25;6.10;;;16.50;83.40;;;;;;5072667;28;20041;-87
2021/07/21 04:28:32;;;;;;;9.13;6.55;;;16.60;83.10;;;;;;5072218;28;20053;-87
2021/07/21 04:30:59;;;;;;;11.93;6.75;;;16.60;83.20;;;;;;5072639;28;20041;-87
2021/07/21 04:33:25;;;;;;;11.02;6.93;;;16.60;83.50;;;;;;5073329;28;20048;-87
2021/07/21 04:35:53;;;;;;;10.27;6.85;;;16.60;83.50;;;;;;5072058;28;20055;-87
2021/07/21 04:38:19;;;;;;;10.32;6.93;;;16.60;83.60;;;;;;5072477;28;20113;-87
2021/07/21 04:40:46;;;;;;;10.23;6.70;;;16.60;83.50;;;;;;5063169;28;20439;-87
2021/07/21 04:43:11;;;;;;;10.05;6.15;;;16.60;83.30;;;;;;5052695;28;20080;-87
2021/07/21 04:45:50;;;;;;;11.50;6.05;;;16.60;83.20;;;;;;5052987;28;20066;-87
2021/07/21 04:48:16;;;;;;;10.63;6.72;;;16.60;82.30;;;;;;5051878;28;20378;-87
2021/07/21 04:50:44;;;;;;;9.55;6.72;;;16.60;82.80;;;;;;5053099;28;20041;-87
2021/07/21 04:53:12;;;;;;;10.48;6.90;;;16.60;83.10;;;;;;5053917;28;20102;-87
2021/07/21 04:55:40;;;;;;;11.60;7.07;;;16.60;82.70;;;;;;5055586;28;20390;-88
2021/07/21 04:58:06;;;;;;;10.18;6.70;;;16.60;83.00;;;;;;5056234;28;20055;-87
2021/07/21 05:00:32;;;;;;;10.10;7.03;;;16.60;83.10;;;;;;5060352;28;20036;-87
2021/07/21 05:02:58;;;;;;;10.23;6.72;;;16.60;84.00;;;;;;5075444;28;20053;-86
2021/07/21 05:05:24;;;;;;;11.27;7.13;;;16.60;83.20;;;;;;5076117;28;20140;-87
2021/07/21 05:07:50;;;;;;;11.05;6.70;;;16.60;82.70;;;;;;5075787;28;20511;-88
2021/07/21 05:10:16;;;;;;;11.52;7.18;;;16.60;83.00;;;;;;5072977;28;20477;-88
2021/07/21 05:12:44;;;;;;;11.32;7.15;;;16.60;82.50;;;;;;5072594;28;20049;-88
2021/07/21 05:15:13;;;;;;;10.07;6.85;;;16.60;83.00;;;;;;5075794;28;20485;-86
2021/07/21 05:17:38;;;;;;;11.30;6.80;;;16.60;83.20;;;;;;5075109;28;20045;-87
2021/07/21 05:20:06;;;;;;;11.75;6.88;;;16.60;83.20;;;;;;5075156;28;20058;-88
2021/07/21 05:22:31;;;;;;;10.32;7.25;;;16.60;82.30;;;;;;5056263;28;20091;-87
2021/07/21 05:24:57;;;;;;;9.90;7.10;;;16.70;82.90;;;;;;5055209;28;20481;-88
2021/07/21 05:27:23;;;;;;;12.98;7.53;;;16.60;83.10;;;;;;5065653;28;20079;-87
2021/07/21 05:29:49;;;;;;;12.02;7.45;;;16.60;83.50;;;;;;5066367;28;20609;-87
2021/07/21 05:32:14;;;;;;;10.23;6.78;;;16.70;83.60;;;;;;5074384;28;20044;-86
2021/07/21 05:34:40;;;;;;;10.60;7.15;;;16.70;83.60;;;;;;5092287;28;20047;-89
2021/07/21 05:37:06;;;;;;;9.18;7.03;;;16.70;83.60;;;;;;5084212;28;20047;-81
2021/07/21 05:39:31;;;;;;;11.05;7.25;;;16.70;83.80;;;;;;5094203;28;20072;-82
2021/07/21 05:41:57;;;;;;;10.43;7.22;;;16.70;83.80;;;;;;5085307;28;20048;-82
2021/07/21 05:44:24;;;;;;;9.77;6.80;;;16.70;83.80;;;;;;5088696;28;20071;-81
2021/07/21 05:46:49;;;;;;;14.15;8.25;;;16.70;83.80;;;;;;5079143;28;20052;-89
2021/07/21 05:49:15;;;;;;;10.13;6.82;;;16.80;83.60;;;;;;5084981;28;20044;-89
2021/07/21 05:51:41;;;;;;;9.93;7.00;;;16.80;83.50;;;;;;5075961;28;20078;-89
2021/07/21 05:54:07;;;;;;;11.02;7.28;;;16.80;83.60;;;;;;5074754;28;20135;-89
2021/07/21 05:56:33;;;;;;;9.70;6.93;;;16.80;83.50;;;;;;5075972;28;20037;-89
2021/07/21 05:58:59;;;;;;;9.48;6.70;;;16.80;83.60;;;;;;5060254;28;20049;-90
2021/07/21 06:01:25;;;;;;;10.90;6.88;;;16.90;83.90;;;;;;5091571;28;20040;-80
2021/07/21 06:03:50;;;;;;;13.68;7.53;;;16.90;83.60;;;;;;5084888;28;20502;-86
2021/07/21 06:06:16;;;;;;;9.73;6.90;;;16.90;83.20;;;;;;5075813;28;20059;-87
2021/07/21 06:08:42;;;;;;;12.70;9.10;;;16.90;83.40;;;;;;5094927;28;20142;-88
2021/07/21 06:11:09;;;;;;;15.77;9.48;;;16.90;84.80;;;;;;5074552;28;20058;-90
2021/07/21 06:13:35;;;;;;;12.02;7.18;;;17.00;84.30;;;;;;5083385;28;20494;-88
2021/07/21 06:16:06;;;;;;;10.65;7.18;;;17.00;84.20;;;;;;5081437;28;20393;-89
2021/07/21 06:18:33;;;;;;;12.20;7.60;;;17.00;83.10;;;;;;5074059;28;20055;-90
2021/07/21 06:20:59;;;;;;;16.60;10.07;;;17.00;83.10;;;;;;5071484;28;20074;-90
2021/07/21 06:23:24;;;;;;;10.82;7.20;;;17.00;84.60;;;;;;5073593;28;20048;-90
2021/07/21 06:25:50;;;;;;;11.50;7.25;;;17.10;83.60;;;;;;5082276;28;20052;-90
2021/07/21 06:28:16;;;;;;;12.20;7.45;;;17.10;83.60;;;;;;5080934;28;20048;-90
2021/07/21 06:30:42;;;;;;;14.95;9.55;;;17.10;83.40;;;;;;5091766;28;20052;-91
2021/07/21 06:33:10;;;;;;;9.65;6.95;;;17.20;84.60;;;;;;5075074;28;20124;-90
2021/07/21 06:35:36;;;;;;;17.23;10.45;;;17.20;83.90;;;;;;5074364;28;20051;-91
2021/07/21 06:38:01;;;;;;;11.15;7.57;;;17.30;84.50;;;;;;5083028;28;20044;-89
2021/07/21 06:40:27;;;;;;;13.32;8.65;;;17.30;83.90;;;;;;5074221;28;20068;-90
2021/07/21 06:42:53;;;;;;;12.25;9.13;;;17.30;83.90;;;;;;5091679;28;20051;-91
2021/07/21 06:45:18;;;;;;;13.60;8.82;;;17.40;84.30;;;;;;5073933;28;20044;-91
2021/07/21 06:47:44;;;;;;;13.60;9.95;;;17.50;84.40;;;;;;5083089;28;20067;-90
2021/07/21 06:50:10;;;;;;;19.67;11.43;;;17.50;85.40;;;;;;5082735;28;20079;-92
2021/07/21 06:52:35;;;;;;;18.08;11.73;;;17.70;85.50;;;;;;5074823;28;20068;-92
2021/07/21 06:55:02;;;;;;;17.10;11.85;;;17.70;86.20;;;;;;5074253;28;20135;-91
2021/07/21 06:57:28;;;;;;;21.58;11.48;;;17.80;87.50;;;;;;5074923;28;20044;-91
2021/07/21 06:59:53;;;;;;;13.32;8.77;;;17.90;88.40;;;;;;5074576;28;20058;-90
2021/07/21 07:02:19;;;;;;;14.75;9.90;;;18.00;86.80;;;;;;5075214;28;20133;-91
2021/07/21 07:04:45;;;;;;;14.60;9.70;;;18.20;86.10;;;;;;5092764;28;20150;-91
2021/07/21 07:07:10;;;;;;;14.80;10.25;;;18.20;85.70;;;;;;5094530;28;20047;-92
2021/07/21 07:09:36;;;;;;;14.02;10.77;;;18.30;85.30;;;;;;5086419;28;20048;-90
2021/07/21 07:12:02;;;;;;;14.90;10.90;;;18.40;84.70;;;;;;5084959;28;20105;-91
2021/07/21 07:14:27;;;;;;;13.77;9.10;;;18.50;84.80;;;;;;5080402;28;20044;-93
2021/07/21 07:16:53;;;;;;;13.40;9.68;;;18.60;84.40;;;;;;5076084;28;20521;-91
2021/07/21 07:19:19;;;;;;;14.15;10.38;;;18.60;83.80;;;;;;5089360;28;20056;-93
2021/07/21 07:21:45;;;;;;;12.63;9.82;;;18.70;83.50;;;;;;5083224;28;20052;-93
2021/07/21 07:24:11;;;;;;;12.10;8.63;;;18.80;83.40;;;;;;5073412;28;20408;-92
2021/07/21 07:26:36;;;;;;;13.25;8.95;;;19.00;83.00;;;;;;5090587;28;20044;-93
2021/07/21 07:29:04;;;;;;;12.23;9.00;;;19.10;82.70;;;;;;5072535;28;20048;-93
2021/07/21 07:31:29;;;;;;;10.63;7.80;;;19.10;81.00;;;;;;5063333;28;20140;-90
2021/07/21 07:33:55;;;;;;;12.13;8.90;;;19.30;80.20;;;;;;5054258;28;20083;-93
2021/07/21 07:36:21;;;;;;;11.93;8.00;;;19.30;80.10;;;;;;5053999;28;20137;-93
2021/07/21 07:38:46;;;;;;;12.68;7.78;;;19.40;80.30;;;;;;5052930;28;20095;-91
2021/07/21 07:41:12;;;;;;;13.20;8.73;;;19.50;80.30;;;;;;5053074;28;20041;-92
2021/07/21 07:43:38;;;;;;;9.85;7.72;;;19.60;80.30;;;;;;5053039;28;20049;-92
2021/07/21 07:46:07;;;;;;;9.80;7.13;;;19.60;80.10;;;;;;5053298;28;20041;-92
2021/07/21 07:48:33;;;;;;;13.27;7.80;;;19.70;78.70;;;;;;5054507;28;20048;-92
2021/07/21 07:50:59;;;;;;;10.45;7.57;;;19.80;78.30;;;;;;5054418;28;20057;-92
2021/07/21 07:53:25;;;;;;;13.77;7.65;;;19.80;77.90;;;;;;5078967;28;20093;-92
2021/07/21 07:55:51;;;;;;;11.75;7.25;;;19.90;78.30;;;;;;5094768;28;20059;-93
2021/07/21 07:58:16;;;;;;;10.88;6.72;;;20.00;77.60;;;;;;5082717;28;20075;-93
2021/07/21 08:00:42;;;;;;;9.60;7.00;;;20.00;77.40;;;;;;5074050;28;20044;-92
2021/07/21 08:03:08;;;;;;;11.35;7.00;;;20.10;77.30;;;;;;5073891;28;20083;-93
2021/07/21 08:05:34;;;;;;;10.00;7.00;;;20.20;77.80;;;;;;5074479;28;20497;-91
2021/07/21 08:08:02;;;;;;;10.43;6.70;;;20.20;77.00;;;;;;5074573;28;20121;-91
2021/07/21 08:10:28;;;;;;;10.50;6.65;;;20.30;76.80;;;;;;5086097;28;20127;-91
2021/07/21 08:12:54;;;;;;;10.38;6.70;;;20.40;76.70;;;;;;5083576;28;20105;-91
2021/07/21 08:15:20;;;;;;;10.38;7.10;;;20.50;76.60;;;;;;5053946;28;20068;-91
2021/07/21 08:17:48;;;;;;;9.65;6.50;;;20.50;76.50;;;;;;5059853;28;20118;-92
2021/07/21 08:20:14;;;;;;;9.68;6.63;;;20.60;76.30;;;;;;5080304;28;20101;-91
2021/07/21 08:22:40;;;;;;;9.88;6.78;;;20.60;76.70;;;;;;5094221;28;20055;-90
2021/07/21 08:25:11;;;;;;;11.18;6.70;;;20.70;76.10;;;;;;5074372;28;20049;-91
2021/07/21 08:27:38;;;;;;;10.20;6.20;;;20.80;75.70;;;;;;5074974;28;20064;-92
2021/07/21 08:30:09;;;;;;;11.63;6.60;;;20.80;75.70;;;;;;5075827;28;20164;-90
2021/07/21 08:32:35;;;;;;;10.73;7.03;;;20.90;75.10;;;;;;5078290;28;20049;-91
2021/07/21 08:35:00;;;;;;;11.50;6.55;;;21.00;75.50;;;;;;5077314;28;20048;-90
2021/07/21 08:37:26;;;;;;;10.38;6.50;;;21.00;74.90;;;;;;5077015;28;20049;-93
2021/07/21 08:39:52;;;;;;;10.00;6.57;;;21.10;74.70;;;;;;5076443;28;20508;-91
2021/07/21 08:42:18;;;;;;;10.95;6.47;;;21.20;75.20;;;;;;5077043;28;20049;-91
2021/07/21 08:44:44;;;;;;;8.88;6.07;;;21.20;74.00;;;;;;5075963;28;20055;-91
2021/07/21 08:47:10;;;;;;;9.32;5.93;;;21.30;73.20;;;;;;5075915;28;20495;-90
2021/07/21 08:49:37;;;;;;;9.75;6.30;;;21.40;72.90;;;;;;5076454;28;20041;-92
2021/07/21 08:52:03;;;;;;;9.00;5.93;;;21.40;72.80;;;;;;5077245;28;20044;-91
2021/07/21 08:54:30;;;;;;;10.10;5.78;;;21.50;71.60;;;;;;5075191;28;20087;-91
2021/07/21 08:56:57;;;;;;;12.10;6.45;;;21.50;72.70;;;;;;5077679;28;20044;-90
2021/07/21 08:59:27;;;;;;;8.20;5.50;;;21.60;73.20;;;;;;5076995;28;20052;-91
2021/07/21 09:01:55;;;;;;;9.15;5.95;;;21.70;72.90;;;;;;5074734;28;20090;-91
2021/07/21 09:04:21;;;;;;;10.18;5.95;;;21.70;71.50;;;;;;5057090;28;20081;-91
2021/07/21 09:06:47;;;;;;;10.15;6.25;;;21.80;70.40;;;;;;5056723;28;20049;-91
2021/07/21 09:09:13;;;;;;;10.07;5.63;;;21.80;70.50;;;;;;5056111;28;20080;-91
2021/07/21 09:11:39;;;;;;;8.52;6.25;;;21.80;70.80;;;;;;5064093;28;20127;-91
2021/07/21 09:14:05;;;;;;;9.90;6.18;;;21.90;70.90;;;;;;5076218;28;20495;-91
2021/07/21 09:16:31;;;;;;;7.68;5.80;;;21.90;71.70;;;;;;5075902;28;20385;-90
2021/07/21 09:18:57;;;;;;;9.80;6.40;;;22.00;71.10;;;;;;5077073;28;20071;-91
2021/07/21 09:21:25;;;;;;;9.48;6.13;;;22.10;72.10;;;;;;5076095;28;20121;-91
2021/07/21 09:23:53;;;;;;;9.15;5.82;;;22.10;72.30;;;;;;5076172;28;20052;-91
2021/07/21 09:26:23;;;;;;;10.10;6.00;;;22.20;72.40;;;;;;5076666;28;20044;-91
2021/07/21 09:28:51;;;;;;;8.68;6.05;;;22.20;73.10;;;;;;5076851;28;20048;-91
2021/07/21 09:31:40;;;;;;;9.00;5.95;;;22.30;71.10;;;;;;5076490;28;20511;-91
2021/07/21 09:34:20;;;;;;;8.55;5.63;;;22.40;71.60;;;;;;5074851;28;20044;-92
2021/07/21 09:36:47;;;;;;;9.13;5.60;;;22.40;71.40;;;;;;5076121;28;20044;-91
2021/07/21 09:39:13;;;;;;;8.30;5.63;;;22.50;71.20;;;;;;5075931;28;20045;-92
2021/07/21 09:41:49;;;;;;;9.63;6.10;;;22.60;71.60;;;;;;5077249;28;20072;-92
2021/07/21 09:44:15;;;;;;;8.73;6.07;;;22.60;69.80;;;;;;5076340;28;20071;-92
2021/07/21 09:46:40;;;;;;;9.32;6.00;;;22.70;67.50;;;;;;5077838;28;20408;-93
2021/07/21 09:49:18;;;;;;;8.45;6.05;;;22.80;68.20;;;;;;5076757;28;20084;-92
2021/07/21 09:51:44;;;;;;;9.35;6.18;;;22.90;67.30;;;;;;5078238;28;20132;-91
2021/07/21 09:54:15;;;;;;;8.80;6.22;;;22.90;67.30;;;;;;5091020;28;20039;-92
2021/07/21 09:56:41;;;;;;;7.20;5.43;;;23.00;69.20;;;;;;5093051;28;20032;-91
2021/07/21 09:59:33;;;;;;;8.55;5.85;;;23.10;68.40;;;;;;5086070;28;20045;-91
2021/07/21 10:02:14;;;;;;;8.93;6.28;;;23.10;67.90;;;;;;5073947;28;20457;-91
2021/07/21 10:04:40;;;;;;;9.15;6.07;;;23.20;65.90;;;;;;5077582;28;20056;-92
2021/07/21 10:07:45;;;;;;;9.55;5.85;;;23.30;65.50;;;;;;5061156;28;20508;-92
2021/07/21 10:09:55;;;;;;;8.43;5.65;;;23.30;66.00;;;;;;5057620;28;20045;-92
2021/07/21 10:12:21;;;;;;;10.68;5.90;;;23.40;65.00;;;;;;5055189;28;20515;-92
2021/07/21 10:15:00;;;;;;;8.20;5.80;;;23.40;63.80;;;;;;5056115;28;20126;-92
2021/07/21 10:17:27;;;;;;;10.32;6.00;;;23.50;66.90;;;;;;5056422;28;20492;-92
2021/07/21 10:19:53;;;;;;;9.00;5.88;;;23.50;66.10;;;;;;5058422;28;20452;-92
2021/07/21 10:22:19;;;;;;;10.88;5.85;;;23.60;65.00;;;;;;5065460;28;20468;-91
2021/07/21 10:24:45;;;;;;;8.05;5.38;;;23.60;64.90;;;;;;5077025;28;20060;-92
2021/07/21 10:27:11;;;;;;;10.38;5.80;;;23.70;65.30;;;;;;5075481;28;20400;-93
2021/07/21 10:29:37;;;;;;;9.18;5.53;;;23.80;64.20;;;;;;5077346;28;20048;-91
2021/07/21 10:32:03;;;;;;;9.88;6.32;;;23.80;64.30;;;;;;5075146;28;20147;-93
2021/07/21 10:34:29;;;;;;;10.52;5.72;;;23.90;66.00;;;;;;5062458;28;20041;-93
2021/07/21 10:36:55;;;;;;;10.70;5.97;;;24.00;67.10;;;;;;5083775;28;20044;-92
2021/07/21 10:39:30;;;;;;;8.20;5.70;;;24.00;67.20;;;;;;5074257;28;20503;-93
2021/07/21 10:42:00;;;;;;;8.00;5.88;;;24.10;64.40;;;;;;5089519;28;20055;-91
2021/07/21 10:44:25;;;;;;;7.45;5.57;;;24.20;65.40;;;;;;5091957;28;20050;-92
2021/07/21 10:46:52;;;;;;;8.07;5.47;;;24.30;67.80;;;;;;5075144;28;20044;-93
2021/07/21 10:49:30;;;;;;;7.95;5.55;;;24.30;66.80;;;;;;5073324;28;20555;-92
2021/07/21 10:55:06;;;;;;;8.35;5.22;;;24.50;66.20;;;;;;5093798;28;20048;-92
2021/07/21 11:00:27;;;;;;;9.50;6.13;;;24.60;66.50;;;;;;5075116;28;20044;-90
2021/07/21 11:02:53;;;;;;;8.63;6.22;;;24.70;64.40;;;;;;5074534;28;20048;-91
2021/07/21 11:05:37;;;;;;;9.38;6.00;;;24.70;62.00;;;;;;5074393;28;20052;-92
2021/07/21 11:08:16;;;;;;;7.85;5.88;;;24.70;62.00;;;;;;5076812;28;20401;-93
2021/07/21 11:10:43;;;;;;;8.82;5.88;;;24.80;65.00;;;;;;5076554;28;20126;-93
2021/07/21 11:13:12;;;;;;;9.15;5.95;;;24.80;63.90;;;;;;5075200;28;20051;-95
2021/07/21 11:15:47;;;;;;;8.88;6.50;;;24.90;63.00;;;;;;5057139;28;20056;-93
2021/07/21 11:18:24;;;;;;;9.30;6.20;;;25.00;64.20;;;;;;5054610;28;20053;-92
2021/07/21 11:21:12;;;;;;;8.77;6.32;;;25.10;66.50;;;;;;5060817;28;20105;-94
2021/07/21 11:23:53;;;;;;;9.23;5.93;;;25.20;65.30;;;;;;5076351;28;20484;-94
2021/07/21 11:26:34;;;;;;;7.30;5.50;;;25.30;63.00;;;;;;5075209;28;20504;-93
2021/07/21 11:29:25;;;;;;;9.45;6.55;;;25.40;66.50;;;;;;5067964;28;20044;-93
2021/07/21 11:31:54;;;;;;;8.40;6.00;;;25.50;64.20;;;;;;5074442;28;20049;-94
2021/07/21 11:34:31;;;;;;;7.82;5.78;;;25.60;67.10;;;;;;5073693;28;20048;-93
2021/07/21 11:37:04;;;;;;;7.50;5.65;;;25.60;68.90;;;;;;5056090;28;20128;-93
2021/07/21 11:39:44;;;;;;;8.45;5.60;;;25.70;69.20;;;;;;5075115;28;20178;-93
2021/07/21 11:42:30;;;;;;;8.18;5.80;;;25.80;69.10;;;;;;5078942;28;20096;-93
2021/07/21 11:45:05;;;;;;;10.50;6.30;;;25.80;66.70;;;;;;5084281;28;20483;-93
2021/07/21 11:47:42;;;;;;;7.78;5.70;;;25.80;61.90;;;;;;5072594;28;20044;-94
2021/07/21 11:50:15;;;;;;;7.53;5.65;;;25.80;59.60;;;;;;5072200;28;20070;-94
2021/07/21 11:52:41;;;;;;;8.32;6.07;;;25.80;60.30;;;;;;5087251;28;20055;-95
2021/07/21 11:55:07;;;;;;;9.10;6.47;;;25.80;63.20;;;;;;5084214;28;20051;-86
2021/07/21 11:57:33;;;;;;;8.73;6.22;;;25.80;60.50;;;;;;5077009;28;20056;-92
2021/07/21 12:00:02;;;;;;;9.10;6.00;;;25.90;64.70;;;;;;5062693;28;20049;-92
2021/07/21 12:02:29;;;;;;;8.60;6.07;;;26.00;65.90;;;;;;5053570;28;20049;-92
2021/07/21 12:04:57;;;;;;;11.73;6.63;;;26.00;65.40;;;;;;5073756;28;20048;-93
2021/07/21 12:07:30;;;;;;;9.43;6.05;;;26.10;65.00;;;;;;5079044;28;20052;-90
2021/07/21 12:09:56;;;;;;;10.15;6.28;;;26.10;67.10;;;;;;5072057;28;20094;-93
2021/07/21 12:12:25;;;;;;;8.35;6.18;;;26.10;69.20;;;;;;5078386;28;20051;-93
2021/07/21 12:14:56;;;;;;;8.70;6.13;;;26.20;67.30;;;;;;5084077;28;20075;-91
2021/07/21 12:17:26;;;;;;;9.98;5.68;;;26.20;68.10;;;;;;5084241;28;20128;-89
2021/07/21 12:20:00;;;;;;;7.72;5.78;;;26.30;68.20;;;;;;5080912;28;20424;-87
2021/07/21 12:22:31;;;;;;;7.07;5.72;;;26.30;68.40;;;;;;5086353;28;20044;-92
2021/07/21 12:24:59;;;;;;;8.02;5.80;;;26.30;68.40;;;;;;5072742;28;20056;-82
2021/07/21 12:27:36;;;;;;;9.30;6.30;;;26.30;68.00;;;;;;5084603;28;20044;-82
2021/07/21 12:30:10;;;;;;;9.07;5.97;;;26.30;68.40;;;;;;5075989;28;20127;-83
2021/07/21 12:32:37;;;;;;;10.55;6.40;;;26.30;69.60;;;;;;5083915;28;20098;-82
2021/07/21 12:35:05;;;;;;;8.43;5.93;;;26.40;67.20;;;;;;5075143;28;20066;-92
2021/07/21 12:37:36;;;;;;;7.75;5.55;;;26.50;68.40;;;;;;5084377;28;20105;-90
2021/07/21 12:40:07;;;;;;;9.00;6.13;;;26.50;68.10;;;;;;5072109;28;20052;-91
2021/07/21 12:42:32;;;;;;;10.40;6.93;;;26.50;68.80;;;;;;5083951;28;20907;-89
2021/07/21 12:45:07;;;;;;;9.25;6.30;;;26.60;64.20;;;;;;5070239;28;20040;-92
2021/07/21 12:47:35;;;;;;;9.02;5.93;;;26.60;63.80;;;;;;5068926;28;20051;-91
2021/07/21 12:50:08;;;;;;;7.95;6.10;;;26.60;66.80;;;;;;5073309;28;20497;-91
2021/07/21 12:52:56;;;;;;;8.38;6.40;;;26.70;68.70;;;;;;5066515;28;20045;-90
2021/07/21 12:55:42;;;;;;;8.75;6.05;;;26.70;65.60;;;;;;5070887;28;20385;-91
2021/07/21 12:58:11;;;;;;;7.97;5.78;;;26.70;68.50;;;;;;5053556;28;20053;-92